createdAt,value
2022-11-03T00:01:51.328Z,6.80
2022-11-03T00:04:21.438Z,9.77
2022-11-03T00:06:51.546Z,7.63
2022-11-03T00:09:21.068Z,16.40
2022-11-03T00:11:51.791Z,4.82
2022-11-03T00:14:20.607Z,10.32
2022-11-03T00:16:50.701Z,7.90
2022-11-03T00:19:18.766Z,9.95
2022-11-03T00:21:47.286Z,10.07
2022-11-03T00:24:15.354Z,10.65
2022-11-03T00:26:43.433Z,9.80
2022-11-03T00:29:13.088Z,13.15
2022-11-03T00:31:43.515Z,8.35
2022-11-03T00:34:13.547Z,10.88
2022-11-03T00:36:43.168Z,8.75
2022-11-03T00:39:11.865Z,5.28
2022-11-03T00:41:40.754Z,7.45
2022-11-03T00:44:10.740Z,9.55
2022-11-03T00:46:39.791Z,10.15
2022-11-03T00:49:08.022Z,13.60
2022-11-03T00:51:37.709Z,7.82
2022-11-03T00:54:07.265Z,11.52
2022-11-03T00:56:37.435Z,9.30
2022-11-03T00:59:07.894Z,10.52
2022-11-03T01:04:40.424Z,9.02
2022-11-03T01:07:09.937Z,9.43
2022-11-03T01:09:39.705Z,6.78
2022-11-03T01:12:10.396Z,8.45
2022-11-03T01:14:40.933Z,10.10
2022-11-03T01:17:11.394Z,9.15
2022-11-03T01:19:39.509Z,10.15
2022-11-03T01:22:10.847Z,8.60
2022-11-03T01:24:40.107Z,6.88
2022-11-03T01:27:08.345Z,9.95
2022-11-03T01:29:36.372Z,9.07
2022-11-03T01:32:04.446Z,12.00
2022-11-03T01:34:32.860Z,8.88
2022-11-03T01:37:00.882Z,8.20
2022-11-03T01:39:30.484Z,12.40
2022-11-03T01:41:58.547Z,6.45
2022-11-03T01:44:33.292Z,7.32
2022-11-03T01:47:07.449Z,6.75
2022-11-03T01:49:40.148Z,8.50
2022-11-03T01:52:12.916Z,7.97
2022-11-03T01:54:44.524Z,8.32
2022-11-03T01:57:16.893Z,5.93
2022-11-03T01:59:46.373Z,10.00
2022-11-03T02:02:14.734Z,12.98
2022-11-03T02:04:43.879Z,9.45
2022-11-03T02:07:19.981Z,8.60
2022-11-03T02:09:49.484Z,10.45
2022-11-03T02:12:19.305Z,9.85
2022-11-03T02:14:54.567Z,7.03
2022-11-03T02:17:24.230Z,9.82
2022-11-03T02:19:58.846Z,10.00
2022-11-03T02:22:55.382Z,13.02
2022-11-03T02:25:44.561Z,8.10
2022-11-03T02:28:14.783Z,9.20
2022-11-03T02:30:48.276Z,5.50
2022-11-03T02:33:32.953Z,10.75
2022-11-03T02:36:07.808Z,11.48
2022-11-03T02:38:40.594Z,9.23
2022-11-03T02:41:11.391Z,10.38
2022-11-03T02:43:40.994Z,10.20
2022-11-03T02:46:10.284Z,11.23
2022-11-03T02:48:38.727Z,13.27
2022-11-03T02:51:07.990Z,10.82
2022-11-03T02:53:41.692Z,10.60
2022-11-03T02:56:15.274Z,9.70
2022-11-03T02:58:54.083Z,6.95
2022-11-03T03:01:28.844Z,9.27
2022-11-03T03:04:00.994Z,13.27
2022-11-03T03:06:34.486Z,10.38
2022-11-03T03:09:07.305Z,7.65
2022-11-03T03:11:42.238Z,7.25
2022-11-03T03:14:14.184Z,14.15
2022-11-03T03:16:49.921Z,12.93
2022-11-03T03:19:25.229Z,7.93
2022-11-03T03:21:55.794Z,13.55
2022-11-03T03:24:32.874Z,8.88
2022-11-03T03:27:05.653Z,12.20
2022-11-03T03:29:39.917Z,9.18
2022-11-03T03:32:11.084Z,9.15
2022-11-03T03:34:43.106Z,9.93
2022-11-03T03:37:14.928Z,7.13
2022-11-03T03:39:46.738Z,10.10
2022-11-03T03:42:17.500Z,7.63
2022-11-03T03:44:47.763Z,11.38
2022-11-03T03:47:21.719Z,9.27
2022-11-03T03:49:50.063Z,9.40
2022-11-03T03:52:18.835Z,7.25
2022-11-03T03:54:46.909Z,12.70
2022-11-03T03:57:19.727Z,7.90
2022-11-03T03:59:48.025Z,8.05
2022-11-03T04:02:16.405Z,8.40
2022-11-03T04:04:44.709Z,8.00
2022-11-03T04:07:29.989Z,10.73
2022-11-03T04:09:58.129Z,9.02
2022-11-03T04:12:44.737Z,10.77
2022-11-03T04:15:31.970Z,7.07
2022-11-03T04:18:17.474Z,10.30
2022-11-03T04:21:03.233Z,6.68
2022-11-03T04:23:31.324Z,5.88
2022-11-03T04:26:01.250Z,7.80
2022-11-03T04:28:30.910Z,10.63
2022-11-03T04:31:00.055Z,6.25
2022-11-03T04:33:30.265Z,8.43
2022-11-03T04:36:00.499Z,11.82
2022-11-03T04:38:31.301Z,12.75
2022-11-03T04:41:00.925Z,8.13
2022-11-03T04:43:36.329Z,8.85
2022-11-03T04:46:04.506Z,6.97
2022-11-03T04:48:35.614Z,9.65
2022-11-03T04:51:11.535Z,11.75
2022-11-03T04:53:41.009Z,10.10
2022-11-03T04:56:16.623Z,7.63
2022-11-03T04:58:48.083Z,11.50
2022-11-03T05:01:23.966Z,9.15
2022-11-03T05:03:54.403Z,7.78
2022-11-03T05:06:24.959Z,8.70
2022-11-03T05:08:57.661Z,17.63
2022-11-03T05:11:31.855Z,9.00
2022-11-03T05:14:04.279Z,7.57
2022-11-03T05:16:33.940Z,7.05
2022-11-03T05:19:02.045Z,10.32
2022-11-03T05:21:30.477Z,5.97
2022-11-03T05:24:05.099Z,6.85
2022-11-03T05:26:36.684Z,8.63
2022-11-03T05:29:14.927Z,12.05
2022-11-03T05:31:45.039Z,9.90
2022-11-03T05:34:28.104Z,8.23
2022-11-03T05:36:56.160Z,11.10
2022-11-03T05:39:30.883Z,7.03
2022-11-03T05:42:00.445Z,10.70
2022-11-03T05:44:36.897Z,8.57
2022-11-03T05:47:15.167Z,8.98
2022-11-03T05:49:43.341Z,13.85
2022-11-03T05:52:17.321Z,9.70
2022-11-03T05:54:45.499Z,10.27
2022-11-03T05:57:15.655Z,7.60
2022-11-03T05:59:47.056Z,5.18
2022-11-03T06:02:30.362Z,9.63
2022-11-03T06:04:59.388Z,9.75
2022-11-03T06:07:31.248Z,14.38
2022-11-03T06:10:00.607Z,11.70
2022-11-03T06:12:31.837Z,8.10
2022-11-03T06:15:01.459Z,15.60
2022-11-03T06:17:30.728Z,10.63
2022-11-03T06:20:01.717Z,9.30
2022-11-03T06:22:32.623Z,9.45
2022-11-03T06:25:02.823Z,9.43
2022-11-03T06:27:35.455Z,13.25
2022-11-03T06:30:21.405Z,12.45
2022-11-03T06:32:49.927Z,13.23
2022-11-03T06:35:19.123Z,24.38
2022-11-03T06:37:47.440Z,24.38
2022-11-03T06:40:34.243Z,22.58
2022-11-03T06:43:15.001Z,19.63
2022-11-03T06:45:51.409Z,24.80
2022-11-03T06:48:26.153Z,33.17
2022-11-03T06:50:54.911Z,32.40
2022-11-03T06:53:26.497Z,31.40
2022-11-03T06:55:55.317Z,24.05
2022-11-03T06:58:28.595Z,20.83
2022-11-03T07:01:03.471Z,31.85
2022-11-03T07:03:35.226Z,26.70
2022-11-03T07:06:12.942Z,20.63
2022-11-03T07:08:43.589Z,20.52
2022-11-03T07:11:16.356Z,21.20
2022-11-03T07:13:45.037Z,18.15
2022-11-03T07:16:27.669Z,24.15
2022-11-03T07:18:55.946Z,16.88
2022-11-03T07:21:37.537Z,20.88
2022-11-03T07:24:18.523Z,21.60
2022-11-03T07:26:46.694Z,19.83
2022-11-03T07:29:21.192Z,28.35
2022-11-03T07:31:53.344Z,14.82
2022-11-03T07:34:25.018Z,20.60
2022-11-03T07:36:56.068Z,20.20
2022-11-03T07:39:24.625Z,19.27
2022-11-03T07:41:53.189Z,19.85
2022-11-03T07:44:22.443Z,11.73
2022-11-03T07:46:52.330Z,25.27
2022-11-03T07:49:28.344Z,14.82
2022-11-03T07:51:57.795Z,25.15
2022-11-03T07:54:29.978Z,11.77
2022-11-03T07:57:01.026Z,24.65
2022-11-03T07:59:33.666Z,16.08
2022-11-03T08:02:04.322Z,22.52
2022-11-03T08:04:35.530Z,21.15
2022-11-03T08:07:03.678Z,17.45
2022-11-03T08:09:31.761Z,16.42
2022-11-03T08:12:00.538Z,17.10
2022-11-03T08:14:28.602Z,21.02
2022-11-03T08:16:56.762Z,14.98
2022-11-03T08:19:26.430Z,20.05
2022-11-03T08:21:54.583Z,16.85
2022-11-03T08:24:22.639Z,16.58
2022-11-03T08:26:50.699Z,15.18
2022-11-03T08:29:19.220Z,16.20
2022-11-03T08:31:47.593Z,22.95
2022-11-03T08:34:15.903Z,18.13
2022-11-03T08:36:46.712Z,19.20
2022-11-03T08:39:14.889Z,17.05
2022-11-03T08:41:43.097Z,19.27
2022-11-03T08:44:11.369Z,12.35
2022-11-03T08:46:39.527Z,20.05
2022-11-03T08:49:07.601Z,19.77
2022-11-03T08:51:37.899Z,20.45
2022-11-03T08:54:10.945Z,15.07
2022-11-03T08:56:39.034Z,22.60
2022-11-03T08:59:07.046Z,16.83
2022-11-03T09:01:35.235Z,18.08
2022-11-03T09:04:03.517Z,30.15
2022-11-03T09:06:31.613Z,16.30
2022-11-03T09:11:49.417Z,14.40
2022-11-03T09:14:17.634Z,15.57
2022-11-03T09:16:46.009Z,14.25
2022-11-03T09:19:14.808Z,17.52
2022-11-03T09:21:42.906Z,32.08
2022-11-03T09:24:11.047Z,18.08
2022-11-03T09:26:39.672Z,13.55
2022-11-03T09:29:09.293Z,15.18
2022-11-03T09:31:37.450Z,17.27
2022-11-03T09:34:05.585Z,24.60
2022-11-03T09:36:33.871Z,19.13
2022-11-03T09:39:01.905Z,20.92
2022-11-03T09:41:53.750Z,14.40
2022-11-03T09:44:22.152Z,30.27
2022-11-03T09:46:55.432Z,20.20
2022-11-03T09:49:26.369Z,13.10
2022-11-03T09:51:55.900Z,18.45
2022-11-03T09:54:24.323Z,16.73
2022-11-03T09:56:52.432Z,13.43
2022-11-03T09:59:23.120Z,14.75
2022-11-03T10:01:53.607Z,16.00
2022-11-03T10:04:28.069Z,17.40
2022-11-03T10:06:57.131Z,14.63
2022-11-03T10:09:27.179Z,25.85
2022-11-03T10:11:56.775Z,13.45
2022-11-03T10:14:26.439Z,11.30
2022-11-03T10:17:00.295Z,13.18
2022-11-03T10:19:28.482Z,20.50
2022-11-03T10:21:56.546Z,16.73
2022-11-03T10:24:24.639Z,22.58
2022-11-03T10:26:54.747Z,24.23
2022-11-03T10:29:26.569Z,11.85
2022-11-03T10:31:56.940Z,15.73
2022-11-03T10:34:28.329Z,10.98
2022-11-03T10:37:17.367Z,14.00
2022-11-03T10:39:46.394Z,17.63
2022-11-03T10:42:22.536Z,15.68
2022-11-03T10:44:54.912Z,19.35
2022-11-03T10:47:26.836Z,16.05
2022-11-03T10:49:56.358Z,13.63
2022-11-03T10:52:26.518Z,16.77
2022-11-03T10:54:56.969Z,16.20
2022-11-03T10:57:26.213Z,14.55
2022-11-03T10:59:56.036Z,18.52
2022-11-03T11:02:26.989Z,16.92
2022-11-03T11:05:00.889Z,12.07
2022-11-03T11:07:34.243Z,13.77
2022-11-03T11:10:08.712Z,18.98
2022-11-03T11:12:37.086Z,13.77
2022-11-03T11:15:39.182Z,11.88
2022-11-03T11:18:07.641Z,14.50
2022-11-03T11:20:40.319Z,13.40
2022-11-03T11:23:44.656Z,19.60
2022-11-03T11:26:19.059Z,12.80
2022-11-03T11:29:08.243Z,17.98
2022-11-03T11:31:38.302Z,11.43
2022-11-03T11:34:40.612Z,15.48
2022-11-03T11:37:36.922Z,12.07
2022-11-03T11:40:14.216Z,18.92
2022-11-03T11:43:18.102Z,19.20
2022-11-03T11:46:23.083Z,16.48
2022-11-03T11:49:16.818Z,24.48
2022-11-03T11:51:44.828Z,20.77
2022-11-03T11:54:18.567Z,20.02
2022-11-03T11:56:49.279Z,16.58
2022-11-03T11:59:24.351Z,14.27
2022-11-03T12:01:55.128Z,11.38
2022-11-03T12:04:27.840Z,15.88
2022-11-03T12:06:57.487Z,19.10
2022-11-03T12:09:28.152Z,14.43
2022-11-03T12:12:00.488Z,11.73
2022-11-03T12:14:36.076Z,22.33
2022-11-03T12:17:34.521Z,13.80
2022-11-03T12:20:36.820Z,16.40
2022-11-03T12:23:04.836Z,16.77
2022-11-03T12:25:36.158Z,15.95
2022-11-03T12:28:04.673Z,21.25
2022-11-03T12:30:39.480Z,13.25
2022-11-03T12:33:08.380Z,17.00
2022-11-03T12:35:38.696Z,16.60
2022-11-03T12:38:06.750Z,16.75
2022-11-03T12:40:34.918Z,19.50
2022-11-03T12:43:02.965Z,13.57
2022-11-03T12:45:30.966Z,19.55
2022-11-03T12:47:59.218Z,12.73
2022-11-03T12:50:27.522Z,17.52
2022-11-03T12:52:56.877Z,14.70
2022-11-03T12:55:25.010Z,14.27
2022-11-03T12:57:53.287Z,19.88
2022-11-03T13:00:21.700Z,16.17
2022-11-03T13:02:50.652Z,19.55
2022-11-03T13:05:18.824Z,20.17
2022-11-03T13:07:46.838Z,24.08
2022-11-03T13:10:16.796Z,20.55
2022-11-03T13:12:45.383Z,16.77
2022-11-03T13:15:16.015Z,15.90
2022-11-03T13:18:13.046Z,29.02
2022-11-03T13:20:32.865Z,21.83
2022-11-03T13:23:01.262Z,13.18
2022-11-03T13:25:31.077Z,17.83
2022-11-03T13:27:59.768Z,21.95
2022-11-03T13:30:28.887Z,17.33
2022-11-03T13:32:57.116Z,17.10
2022-11-03T13:36:20.335Z,23.35
2022-11-03T13:38:48.489Z,19.23
2022-11-03T13:41:18.009Z,13.05
2022-11-03T13:43:46.155Z,18.05
2022-11-03T13:46:14.252Z,25.02
2022-11-03T13:51:30.713Z,23.95
2022-11-03T13:59:36.790Z,20.35
2022-11-03T14:04:55.229Z,25.63
2022-11-03T14:07:23.359Z,17.10
2022-11-03T14:09:52.513Z,19.95
2022-11-03T14:12:35.193Z,21.48
2022-11-03T14:15:05.317Z,25.90
2022-11-03T14:17:33.945Z,25.67
2022-11-03T14:20:04.642Z,21.40
2022-11-03T14:22:33.446Z,25.05
2022-11-03T14:25:02.238Z,26.92
2022-11-03T14:27:31.899Z,26.77
2022-11-03T14:30:00.118Z,23.35
2022-11-03T14:32:28.316Z,25.92
2022-11-03T14:34:56.501Z,29.27
2022-11-03T14:37:25.684Z,21.35
2022-11-03T14:39:54.104Z,31.35
2022-11-03T14:42:21.415Z,17.40
2022-11-03T14:47:26.441Z,25.95
2022-11-03T14:49:54.658Z,25.80
2022-11-03T14:52:22.962Z,32.33
2022-11-03T14:54:52.246Z,26.15
2022-11-03T14:57:20.358Z,32.28
2022-11-03T14:59:53.247Z,33.15
2022-11-03T15:02:23.318Z,28.17
2022-11-03T15:04:51.454Z,27.13
2022-11-03T15:07:19.708Z,33.10
2022-11-03T15:09:48.604Z,43.90
2022-11-03T15:12:16.878Z,34.58
2022-11-03T15:14:44.976Z,31.25
2022-11-03T15:17:13.209Z,31.40
2022-11-03T15:19:42.731Z,27.10
2022-11-03T15:22:11.044Z,27.98
2022-11-03T15:27:27.267Z,33.03
2022-11-03T15:29:55.400Z,24.02
2022-11-03T15:32:23.509Z,31.70
2022-11-03T15:34:52.961Z,32.53
2022-11-03T15:37:21.217Z,26.90
2022-11-03T15:39:49.294Z,35.15
2022-11-03T15:42:17.476Z,35.30
2022-11-03T15:44:45.660Z,24.20
2022-11-03T15:47:14.039Z,22.05
2022-11-03T15:49:42.111Z,17.00
2022-11-03T15:52:11.781Z,25.05
2022-11-03T15:54:42.597Z,34.28
2022-11-03T15:57:11.036Z,32.65
2022-11-03T15:59:40.179Z,29.10
2022-11-03T16:02:27.615Z,26.77
2022-11-03T16:04:57.513Z,47.95
2022-11-03T16:07:27.429Z,49.28
2022-11-03T16:09:56.445Z,43.35
2022-11-03T16:12:25.257Z,31.52
2022-11-03T16:14:53.751Z,26.05
2022-11-03T16:17:22.912Z,28.88
2022-11-03T16:19:51.285Z,38.28
2022-11-03T16:22:19.419Z,29.25
2022-11-03T16:24:48.897Z,34.22
2022-11-03T16:27:17.093Z,29.35
2022-11-03T16:29:45.519Z,30.45
2022-11-03T16:32:13.608Z,26.23
2022-11-03T16:34:41.667Z,29.13
2022-11-03T16:37:09.773Z,28.88
2022-11-03T16:39:39.194Z,25.52
2022-11-03T16:42:08.724Z,22.38
2022-11-03T16:44:36.839Z,27.90
2022-11-03T16:47:05.031Z,25.73
2022-11-03T16:49:33.126Z,28.27
2022-11-03T16:52:01.723Z,26.52
2022-11-03T16:54:29.982Z,29.73
2022-11-03T16:56:58.064Z,25.67
2022-11-03T16:59:27.512Z,29.27
2022-11-03T17:01:56.962Z,28.52
2022-11-03T17:04:25.304Z,34.67
2022-11-03T17:06:53.355Z,23.95
2022-11-03T17:09:21.826Z,35.55
2022-11-03T17:11:50.027Z,27.70
2022-11-03T17:14:18.157Z,30.35
2022-11-03T17:16:48.776Z,26.90
2022-11-03T17:19:17.299Z,32.72
2022-11-03T17:21:45.558Z,28.77
2022-11-03T17:24:13.753Z,25.85
2022-11-03T17:26:51.770Z,26.95
2022-11-03T17:29:23.653Z,27.35
2022-11-03T17:31:53.217Z,22.92
2022-11-03T17:34:25.228Z,31.08
2022-11-03T17:36:54.378Z,28.45
2022-11-03T17:39:29.170Z,32.70
2022-11-03T17:42:06.761Z,24.80
2022-11-03T17:44:34.806Z,31.15
2022-11-03T17:47:04.270Z,24.88
2022-11-03T17:49:33.637Z,24.48
2022-11-03T17:52:02.602Z,26.52
2022-11-03T17:54:32.141Z,28.43
2022-11-03T17:57:02.835Z,34.50
2022-11-03T17:59:31.393Z,30.33
2022-11-03T18:01:59.867Z,25.70
2022-11-03T18:04:29.681Z,28.40
2022-11-03T18:06:57.782Z,43.80
2022-11-03T18:09:25.962Z,29.80
2022-11-03T18:12:11.986Z,30.43
2022-11-03T18:14:40.203Z,32.87
2022-11-03T18:17:11.084Z,35.53
2022-11-03T18:19:40.957Z,31.83
2022-11-03T18:22:10.590Z,26.33
2022-11-03T18:24:38.730Z,35.70
2022-11-03T18:27:12.046Z,32.13
2022-11-03T18:29:40.214Z,29.13
2022-11-03T18:32:16.013Z,32.80
2022-11-03T18:34:46.489Z,25.40
2022-11-03T18:37:14.668Z,25.60
2022-11-03T18:39:42.870Z,27.27
2022-11-03T18:42:15.344Z,26.27
2022-11-03T18:44:44.793Z,30.47
2022-11-03T18:47:12.925Z,30.30
2022-11-03T18:49:41.062Z,28.73
2022-11-03T18:52:15.090Z,22.87
2022-11-03T18:54:47.173Z,24.10
2022-11-03T18:57:16.881Z,23.70
2022-11-03T18:59:45.952Z,32.13
2022-11-03T19:02:19.136Z,25.90
2022-11-03T19:04:48.098Z,20.33
2022-11-03T19:07:24.359Z,16.67
2022-11-03T19:09:53.135Z,20.57
2022-11-03T19:12:21.994Z,20.77
2022-11-03T19:14:51.361Z,19.97
2022-11-03T19:17:24.031Z,16.20
2022-11-03T19:19:54.041Z,24.03
2022-11-03T19:22:24.706Z,19.07
2022-11-03T19:24:53.125Z,19.50
2022-11-03T19:27:25.626Z,23.33
2022-11-03T19:29:54.325Z,16.27
2022-11-03T19:32:26.331Z,18.73
2022-11-03T19:35:00.179Z,20.30
2022-11-03T19:37:35.178Z,16.80
2022-11-03T19:40:06.113Z,19.33
2022-11-03T19:42:36.936Z,16.40
2022-11-03T19:45:07.836Z,20.93
2022-11-03T19:47:39.756Z,18.47
2022-11-03T19:50:18.772Z,19.33
2022-11-03T19:52:50.326Z,17.80
2022-11-03T19:55:21.449Z,22.23
2022-11-03T19:57:49.556Z,15.67
2022-11-03T20:00:20.101Z,15.50
2022-11-03T20:02:48.300Z,16.60
2022-11-03T20:05:18.808Z,19.10
2022-11-03T20:07:49.416Z,16.93
2022-11-03T20:10:21.675Z,13.67
2022-11-03T20:12:51.643Z,13.10
2022-11-03T20:15:21.826Z,13.70
2022-11-03T20:17:55.022Z,13.33
2022-11-03T20:20:26.922Z,20.30
2022-11-03T20:22:59.813Z,17.73
2022-11-03T20:25:29.852Z,20.27
2022-11-03T20:27:59.068Z,15.60
2022-11-03T20:30:29.245Z,15.97
2022-11-03T20:32:57.396Z,17.43
2022-11-03T20:35:27.928Z,17.07
2022-11-03T20:37:59.578Z,21.07
2022-11-03T20:40:31.572Z,15.93
2022-11-03T20:43:03.110Z,15.83
2022-11-03T20:45:31.997Z,21.73
2022-11-03T20:48:00.467Z,17.20
2022-11-03T20:50:33.230Z,15.93
2022-11-03T20:53:03.004Z,19.57
2022-11-03T20:55:31.197Z,23.97
2022-11-03T20:57:59.854Z,18.13
2022-11-03T21:00:28.679Z,16.03
2022-11-03T21:02:57.473Z,19.53
2022-11-03T21:05:27.832Z,19.50
2022-11-03T21:07:56.775Z,23.03
2022-11-03T21:10:26.303Z,20.20
2022-11-03T21:12:55.132Z,25.67
2022-11-03T21:16:03.736Z,21.97
2022-11-03T21:18:54.479Z,28.50
2022-11-03T21:21:23.203Z,25.17
2022-11-03T21:23:51.296Z,29.50
2022-11-03T21:26:20.837Z,25.40
2022-11-03T21:28:48.935Z,26.60
2022-11-03T21:31:17.124Z,22.37
2022-11-03T21:33:45.319Z,19.50
2022-11-03T21:36:13.911Z,23.03
2022-11-03T21:38:59.340Z,18.80
2022-11-03T21:41:46.372Z,17.87
2022-11-03T21:44:17.225Z,25.60
2022-11-03T21:46:46.773Z,22.30
2022-11-03T21:49:32.741Z,22.80
2022-11-03T21:52:00.888Z,25.07
2022-11-03T21:54:28.942Z,26.77
2022-11-03T21:56:58.475Z,30.60
2022-11-03T21:59:26.521Z,31.33
2022-11-03T22:01:55.289Z,35.27
2022-11-03T22:04:24.313Z,30.93
2022-11-03T22:06:55.499Z,28.13
2022-11-03T22:09:24.571Z,30.60
2022-11-03T22:11:53.022Z,27.47
2022-11-03T22:14:22.690Z,28.73
2022-11-03T22:16:49.855Z,28.73
2022-11-03T22:19:37.320Z,26.97
2022-11-03T22:22:24.430Z,16.03
2022-11-03T22:25:10.093Z,18.97
2022-11-03T22:27:38.231Z,21.07
2022-11-03T22:30:26.259Z,24.77
2022-11-03T22:32:56.044Z,19.53
2022-11-03T22:35:43.166Z,18.47
2022-11-03T22:38:13.038Z,20.03
2022-11-03T22:41:00.345Z,17.90
2022-11-03T22:43:46.801Z,15.57
2022-11-03T22:46:18.381Z,18.97
2022-11-03T22:48:46.464Z,17.07
2022-11-03T22:51:16.944Z,16.07
2022-11-03T22:54:10.818Z,18.77
2022-11-03T22:56:39.917Z,18.17
2022-11-03T22:59:08.748Z,17.40
2022-11-03T23:01:38.374Z,18.03
2022-11-03T23:04:07.840Z,17.90
2022-11-03T23:06:37.641Z,20.83
2022-11-03T23:09:06.217Z,15.97
2022-11-03T23:11:35.323Z,17.73
2022-11-03T23:14:05.374Z,23.60
2022-11-03T23:16:35.135Z,17.23
2022-11-03T23:19:22.748Z,18.13
2022-11-03T23:21:52.816Z,17.57
2022-11-03T23:24:42.152Z,19.53
2022-11-03T23:27:13.950Z,17.50
2022-11-03T23:29:42.293Z,18.03
2022-11-03T23:32:10.452Z,18.87
2022-11-03T23:34:40.761Z,18.73
2022-11-03T23:37:08.847Z,19.93
2022-11-03T23:39:37.015Z,23.23
2022-11-03T23:42:05.439Z,17.03
2022-11-03T23:44:55.116Z,21.03
2022-11-03T23:47:40.765Z,20.00
2022-11-03T23:50:10.589Z,21.40
2022-11-03T23:52:38.659Z,18.50
2022-11-03T23:55:07.600Z,21.13
2022-11-03T23:57:53.087Z,19.27
